createdAt,value
2017-08-04T00:00:09.383Z,0
2017-08-04T00:01:11.053Z,0
2017-08-04T00:02:12.819Z,0
2017-08-04T00:03:18.967Z,0
2017-08-04T00:04:20.997Z,0
2017-08-04T00:05:25.550Z,0
2017-08-04T00:06:29.054Z,0
2017-08-04T00:07:32.553Z,0
2017-08-04T00:08:34.232Z,0
2017-08-04T00:09:37.545Z,0
2017-08-04T00:10:42.066Z,0
2017-08-04T00:11:43.901Z,0
2017-08-04T00:12:45.592Z,0
2017-08-04T00:13:47.264Z,0
2017-08-04T00:14:48.972Z,0
2017-08-04T00:15:50.739Z,0
2017-08-04T00:16:52.396Z,0
2017-08-04T00:17:54.079Z,0
2017-08-04T00:18:56.522Z,0
2017-08-04T00:19:58.196Z,0
2017-08-04T00:21:01.952Z,0
2017-08-04T00:22:03.617Z,0
2017-08-04T00:23:05.331Z,0
2017-08-04T00:24:06.989Z,0
2017-08-04T00:25:10.771Z,0
2017-08-04T00:26:12.426Z,0
2017-08-04T00:27:14.214Z,0
2017-08-04T00:28:15.972Z,0
2017-08-04T00:29:17.713Z,0
2017-08-04T00:30:19.392Z,0
2017-08-04T00:31:21.191Z,0
2017-08-04T00:32:22.856Z,0
2017-08-04T00:33:25.535Z,0
2017-08-04T00:34:27.266Z,0
2017-08-04T00:35:29.042Z,0
2017-08-04T00:36:30.776Z,0
2017-08-04T00:37:32.526Z,0
2017-08-04T00:38:34.264Z,0
2017-08-04T00:39:36.029Z,0
2017-08-04T00:40:37.801Z,0
2017-08-04T00:41:39.653Z,0
2017-08-04T00:42:41.370Z,0
2017-08-04T00:43:43.123Z,0
2017-08-04T00:44:44.851Z,0
2017-08-04T00:45:46.553Z,0
2017-08-04T00:46:48.278Z,0
2017-08-04T00:47:50.136Z,0
2017-08-04T00:48:51.854Z,0
2017-08-04T00:49:53.594Z,0
2017-08-04T00:50:55.323Z,0
2017-08-04T00:51:58.130Z,0
2017-08-04T00:52:59.891Z,0
2017-08-04T00:54:06.344Z,0
2017-08-04T00:55:08.064Z,0
2017-08-04T00:56:11.875Z,0
2017-08-04T00:57:13.626Z,0
2017-08-04T00:58:15.376Z,0
2017-08-04T00:59:17.161Z,0
2017-08-04T01:00:18.961Z,0
2017-08-04T01:01:20.627Z,0
2017-08-04T01:02:22.293Z,0
2017-08-04T01:03:25.190Z,0
2017-08-04T01:04:26.847Z,0
2017-08-04T01:05:29.675Z,0
2017-08-04T01:06:31.330Z,0
2017-08-04T01:07:47.605Z,0
2017-08-04T01:08:49.265Z,0
2017-08-04T01:09:51.502Z,0
2017-08-04T01:10:53.750Z,0
2017-08-04T01:11:55.430Z,0
2017-08-04T01:12:57.610Z,0
2017-08-04T01:13:59.380Z,0
2017-08-04T01:15:01.111Z,0
2017-08-04T01:16:13.701Z,0
2017-08-04T01:17:15.414Z,0
2017-08-04T01:18:18.301Z,0
2017-08-04T01:19:20.023Z,0
2017-08-04T01:20:23.910Z,0
2017-08-04T01:21:25.651Z,0
2017-08-04T01:22:33.197Z,0
2017-08-04T01:23:34.920Z,0
2017-08-04T01:24:42.247Z,0
2017-08-04T01:25:43.976Z,0
2017-08-04T01:26:47.693Z,0
2017-08-04T01:27:49.408Z,0
2017-08-04T01:28:51.172Z,0
2017-08-04T01:29:52.922Z,0
2017-08-04T01:30:54.767Z,0
2017-08-04T01:31:56.414Z,0
2017-08-04T01:33:00.224Z,0
2017-08-04T01:34:01.941Z,0
2017-08-04T01:35:06.026Z,0
2017-08-04T01:36:07.771Z,0
2017-08-04T01:37:10.559Z,0
2017-08-04T01:38:12.409Z,0
2017-08-04T01:39:14.157Z,0
2017-08-04T01:40:15.810Z,0
2017-08-04T01:41:17.570Z,0
2017-08-04T01:42:19.288Z,0
2017-08-04T01:43:21.056Z,0
2017-08-04T01:44:22.768Z,0
2017-08-04T01:45:24.500Z,0
2017-08-04T01:46:28.062Z,0
2017-08-04T01:47:31.013Z,0
2017-08-04T01:48:33.055Z,0
2017-08-04T01:49:35.854Z,0
2017-08-04T01:50:38.122Z,0
2017-08-04T01:51:40.919Z,0
2017-08-04T01:52:42.605Z,0
2017-08-04T01:53:44.413Z,0
2017-08-04T01:54:46.129Z,0
2017-08-04T01:55:47.921Z,0
2017-08-04T01:56:49.670Z,0
2017-08-04T01:57:51.442Z,0
2017-08-04T01:58:53.182Z,0
2017-08-04T01:59:55.027Z,0
2017-08-04T02:00:57.086Z,0
2017-08-04T02:01:58.910Z,0
2017-08-04T02:03:00.630Z,0
2017-08-04T02:04:02.332Z,0
2017-08-04T02:05:04.084Z,0
2017-08-04T02:06:05.836Z,0
2017-08-04T02:07:07.588Z,0
2017-08-04T02:08:09.294Z,0
2017-08-04T02:09:11.047Z,0
2017-08-04T02:10:12.893Z,0
2017-08-04T02:11:14.621Z,0
2017-08-04T02:12:16.401Z,0
2017-08-04T02:13:18.175Z,0
2017-08-04T02:14:19.900Z,0
2017-08-04T02:15:21.629Z,0
2017-08-04T02:16:23.479Z,0
2017-08-04T02:17:25.196Z,0
2017-08-04T02:18:27.995Z,0
2017-08-04T02:19:29.645Z,0
2017-08-04T02:20:31.393Z,0
2017-08-04T02:21:33.121Z,0
2017-08-04T02:22:34.875Z,0
2017-08-04T02:23:36.614Z,0
2017-08-04T02:24:38.324Z,0
2017-08-04T02:25:40.046Z,0
2017-08-04T02:26:41.904Z,0
2017-08-04T02:27:43.627Z,0
2017-08-04T02:28:46.418Z,0
2017-08-04T02:29:48.077Z,0
2017-08-04T02:30:49.884Z,0
2017-08-04T02:31:51.610Z,0
2017-08-04T02:32:54.419Z,0
2017-08-04T02:33:56.140Z,0
2017-08-04T02:34:57.900Z,0
2017-08-04T02:35:59.601Z,0
2017-08-04T02:37:01.446Z,0
2017-08-04T02:38:03.191Z,0
2017-08-04T02:39:04.929Z,0
2017-08-04T02:40:06.599Z,0
2017-08-04T02:41:08.428Z,0
2017-08-04T02:42:10.158Z,0
2017-08-04T02:43:11.919Z,0
2017-08-04T02:44:13.712Z,0
2017-08-04T02:45:15.451Z,0
2017-08-04T02:46:17.260Z,0
2017-08-04T02:47:19.072Z,0
2017-08-04T02:48:20.776Z,0
2017-08-04T02:49:22.531Z,0
2017-08-04T02:50:24.181Z,0
2017-08-04T02:51:26.004Z,0
2017-08-04T02:52:27.725Z,0
2017-08-04T02:53:29.501Z,0
2017-08-04T02:54:31.242Z,0
2017-08-04T02:55:32.916Z,0
2017-08-04T02:56:34.640Z,0
2017-08-04T02:57:36.391Z,0
2017-08-04T02:58:38.134Z,0
2017-08-04T02:59:39.882Z,0
2017-08-04T03:00:41.614Z,0
2017-08-04T03:01:43.365Z,0
2017-08-04T03:02:45.015Z,0
2017-08-04T03:03:46.774Z,0
2017-08-04T03:04:48.509Z,0
2017-08-04T03:05:50.284Z,0
2017-08-04T03:06:52.041Z,0
2017-08-04T03:07:53.792Z,0
2017-08-04T03:08:55.646Z,0
2017-08-04T03:09:57.451Z,0
2017-08-04T03:10:59.197Z,0
2017-08-04T03:12:01.020Z,0
2017-08-04T03:13:02.791Z,0
2017-08-04T03:14:05.591Z,0
2017-08-04T03:15:07.328Z,0
2017-08-04T03:16:11.137Z,0
2017-08-04T03:17:12.789Z,0
2017-08-04T03:18:14.460Z,0
2017-08-04T03:19:16.125Z,0
2017-08-04T03:20:17.860Z,0
2017-08-04T03:21:19.546Z,0
2017-08-04T03:22:21.238Z,0
2017-08-04T03:23:22.958Z,0
2017-08-04T03:24:24.714Z,0
2017-08-04T03:25:26.421Z,0
2017-08-04T03:26:28.198Z,4
2017-08-04T03:27:29.928Z,4
2017-08-04T03:28:31.695Z,0
2017-08-04T03:29:33.429Z,0
2017-08-04T03:30:35.112Z,4
2017-08-04T03:31:36.850Z,4
2017-08-04T03:32:39.530Z,4
2017-08-04T03:33:41.284Z,4
2017-08-04T03:34:44.132Z,8
2017-08-04T03:35:45.891Z,8
2017-08-04T03:36:48.654Z,4
2017-08-04T03:37:50.545Z,8
2017-08-04T03:38:52.352Z,4
2017-08-04T03:39:54.093Z,8
2017-08-04T03:40:55.843Z,4
2017-08-04T03:41:57.579Z,8
2017-08-04T03:42:59.363Z,8
2017-08-04T03:44:01.096Z,8
2017-08-04T03:45:02.936Z,8
2017-08-04T03:46:04.656Z,8
2017-08-04T03:47:06.466Z,16
2017-08-04T03:48:08.178Z,16
2017-08-04T03:49:10.914Z,16
2017-08-04T03:50:12.718Z,16
2017-08-04T03:51:15.494Z,20
2017-08-04T03:52:17.280Z,20
2017-08-04T03:53:19.060Z,24
2017-08-04T03:54:20.707Z,24
2017-08-04T03:55:23.487Z,24
2017-08-04T03:56:25.201Z,24
2017-08-04T03:57:26.990Z,24
2017-08-04T03:58:28.820Z,24
2017-08-04T03:59:30.518Z,24
2017-08-04T04:00:32.241Z,28
2017-08-04T04:01:36.007Z,32
2017-08-04T04:02:37.732Z,32
2017-08-04T04:03:40.553Z,32
2017-08-04T04:04:42.262Z,32
2017-08-04T04:05:44.088Z,36
2017-08-04T04:06:45.976Z,40
2017-08-04T04:07:47.692Z,40
2017-08-04T04:08:49.427Z,40
2017-08-04T04:09:51.254Z,40
2017-08-04T04:10:53.018Z,44
2017-08-04T04:11:55.861Z,44
2017-08-04T04:12:57.606Z,44
2017-08-04T04:13:59.466Z,48
2017-08-04T04:15:01.206Z,52
2017-08-04T04:16:03.054Z,52
2017-08-04T04:17:04.791Z,56
2017-08-04T04:18:06.531Z,60
2017-08-04T04:19:08.276Z,64
2017-08-04T04:20:10.043Z,76
2017-08-04T04:21:11.763Z,88
2017-08-04T04:22:13.613Z,92
2017-08-04T04:23:15.386Z,100
2017-08-04T04:24:17.152Z,104
2017-08-04T04:25:18.888Z,104
2017-08-04T04:26:20.731Z,112
2017-08-04T04:27:22.460Z,112
2017-08-04T04:28:24.213Z,120
2017-08-04T04:29:25.887Z,128
2017-08-04T04:30:27.751Z,140
2017-08-04T04:31:29.510Z,152
2017-08-04T04:32:31.817Z,156
2017-08-04T04:33:33.524Z,164
2017-08-04T04:34:35.323Z,172
2017-08-04T04:35:37.057Z,184
2017-08-04T04:36:38.814Z,232
2017-08-04T04:37:40.549Z,264
2017-08-04T04:38:42.305Z,280
2017-08-04T04:39:44.078Z,260
2017-08-04T04:40:45.903Z,260
2017-08-04T04:41:47.640Z,308
2017-08-04T04:42:49.437Z,396
2017-08-04T04:43:51.169Z,424
2017-08-04T04:44:53.007Z,480
2017-08-04T04:45:54.774Z,496
2017-08-04T04:46:56.539Z,564
2017-08-04T04:47:58.277Z,644
2017-08-04T04:49:01.162Z,744
2017-08-04T04:50:02.894Z,704
2017-08-04T04:51:04.734Z,684
2017-08-04T04:52:06.397Z,600
2017-08-04T04:53:08.153Z,620
2017-08-04T04:54:09.912Z,756
2017-08-04T04:55:11.775Z,820
2017-08-04T04:56:13.520Z,792
2017-08-04T04:57:15.291Z,692
2017-08-04T04:58:17.048Z,860
2017-08-04T04:59:19.942Z,840
2017-08-04T05:00:21.764Z,584
2017-08-04T05:01:23.768Z,524
2017-08-04T05:02:25.506Z,524
2017-08-04T05:03:27.331Z,524
2017-08-04T05:04:29.054Z,540
2017-08-04T05:05:30.816Z,544
2017-08-04T05:06:32.578Z,508
2017-08-04T05:07:40.087Z,492
2017-08-04T05:08:41.738Z,480
2017-08-04T05:09:43.469Z,484
2017-08-04T05:10:47.203Z,532
2017-08-04T05:11:48.761Z,596
2017-08-04T05:12:50.573Z,628
2017-08-04T05:13:52.303Z,640
2017-08-04T05:14:54.147Z,652
2017-08-04T05:15:55.816Z,664
2017-08-04T05:16:58.655Z,640
2017-08-04T05:18:00.456Z,620
2017-08-04T05:19:02.242Z,604
2017-08-04T05:20:04.054Z,492
2017-08-04T05:21:05.818Z,544
2017-08-04T05:22:07.684Z,552
2017-08-04T05:23:09.418Z,564
2017-08-04T05:24:11.093Z,588
2017-08-04T05:25:12.940Z,604
2017-08-04T05:26:14.661Z,616
2017-08-04T05:27:16.463Z,596
2017-08-04T05:28:18.206Z,592
2017-08-04T05:29:21.755Z,588
2017-08-04T05:30:25.226Z,576
2017-08-04T05:31:26.905Z,564
2017-08-04T05:32:40.371Z,604
2017-08-04T05:33:42.034Z,648
2017-08-04T05:34:54.292Z,632
2017-08-04T05:35:55.966Z,640
2017-08-04T05:36:57.701Z,620
2017-08-04T05:37:59.423Z,584
2017-08-04T05:39:02.212Z,604
2017-08-04T05:40:03.865Z,624
2017-08-04T05:41:05.581Z,672
2017-08-04T05:42:07.251Z,672
2017-08-04T05:43:09.348Z,764
2017-08-04T05:44:11.162Z,772
2017-08-04T05:45:12.883Z,776
2017-08-04T05:46:14.642Z,680
2017-08-04T05:47:16.307Z,568
2017-08-04T05:48:18.096Z,516
2017-08-04T05:49:20.819Z,592
2017-08-04T05:50:22.572Z,664
2017-08-04T05:51:24.390Z,700
2017-08-04T05:52:26.136Z,660
2017-08-04T05:53:28.979Z,520
2017-08-04T05:54:30.708Z,520
2017-08-04T05:55:32.518Z,516
2017-08-04T05:56:34.252Z,628
2017-08-04T05:57:40.839Z,640
2017-08-04T05:58:42.575Z,524
2017-08-04T05:59:44.329Z,588
2017-08-04T06:00:46.064Z,852
2017-08-04T06:01:47.900Z,1084
2017-08-04T06:02:49.628Z,1224
2017-08-04T06:03:51.379Z,1132
2017-08-04T06:04:53.041Z,1264
2017-08-04T06:05:54.857Z,1332
2017-08-04T06:06:56.584Z,1260
2017-08-04T06:07:58.399Z,1164
2017-08-04T06:09:00.131Z,1052
2017-08-04T06:10:02.818Z,992
2017-08-04T06:11:04.552Z,1000
2017-08-04T06:12:06.315Z,1032
2017-08-04T06:13:08.059Z,1092
2017-08-04T06:14:10.909Z,1156
2017-08-04T06:15:12.567Z,1152
2017-08-04T06:16:19.304Z,1236
2017-08-04T06:17:20.963Z,1224
2017-08-04T06:18:23.822Z,1220
2017-08-04T06:19:25.562Z,1208
2017-08-04T06:20:28.308Z,1176
2017-08-04T06:21:30.243Z,1244
2017-08-04T06:22:32.050Z,1348
2017-08-04T06:23:33.793Z,1404
2017-08-04T06:24:36.566Z,1412
2017-08-04T06:25:38.341Z,1344
2017-08-04T06:26:40.192Z,1324
2017-08-04T06:27:41.903Z,1340
2017-08-04T06:28:44.624Z,1316
2017-08-04T06:29:46.353Z,1320
2017-08-04T06:30:52.824Z,1332
2017-08-04T06:31:54.538Z,1428
2017-08-04T06:32:58.372Z,1488
2017-08-04T06:34:00.134Z,1488
2017-08-04T06:35:07.887Z,1568
2017-08-04T06:36:09.612Z,1620
2017-08-04T06:37:11.364Z,1680
2017-08-04T06:38:13.025Z,1784
2017-08-04T06:39:14.863Z,1860
2017-08-04T06:40:16.607Z,1840
2017-08-04T06:41:18.437Z,1816
2017-08-04T06:42:20.157Z,1876
2017-08-04T06:43:21.922Z,2032
2017-08-04T06:44:23.654Z,1924
2017-08-04T06:45:25.309Z,1888
2017-08-04T06:46:27.088Z,2084
2017-08-04T06:47:30.890Z,2120
2017-08-04T06:48:32.551Z,1904
2017-08-04T06:49:34.462Z,1880
2017-08-04T06:50:36.311Z,1952
2017-08-04T06:51:40.606Z,1972
2017-08-04T06:52:42.398Z,2256
2017-08-04T06:53:44.712Z,2620
2017-08-04T06:54:46.442Z,2868
2017-08-04T06:55:53.968Z,3060
2017-08-04T06:56:55.845Z,3088
2017-08-04T06:58:02.601Z,2964
2017-08-04T06:59:04.478Z,2964
2017-08-04T07:00:07.681Z,3056
2017-08-04T07:01:09.673Z,3272
2017-08-04T07:02:24.594Z,3032
2017-08-04T07:03:26.729Z,2524
2017-08-04T07:04:34.812Z,2380
2017-08-04T07:05:36.897Z,2300
2017-08-04T07:06:38.742Z,2300
2017-08-04T07:07:40.575Z,2148
2017-08-04T07:08:43.526Z,2032
2017-08-04T07:09:45.355Z,2008
2017-08-04T07:10:47.120Z,1960
2017-08-04T07:11:48.866Z,2196
2017-08-04T07:12:50.652Z,2460
2017-08-04T07:13:52.321Z,2420
2017-08-04T07:14:54.168Z,2356
2017-08-04T07:15:55.954Z,2648
2017-08-04T07:16:57.703Z,2704
2017-08-04T07:17:59.484Z,2848
2017-08-04T07:19:01.271Z,3012
2017-08-04T07:20:04.258Z,2720
2017-08-04T07:21:06.152Z,2468
2017-08-04T07:22:08.113Z,2256
2017-08-04T07:23:10.347Z,2268
2017-08-04T07:24:13.252Z,2268
2017-08-04T07:25:15.120Z,2200
2017-08-04T07:26:23.067Z,2244
2017-08-04T07:27:25.033Z,2216
2017-08-04T07:28:28.426Z,2448
2017-08-04T07:29:29.972Z,2344
2017-08-04T07:30:32.138Z,2024
2017-08-04T07:31:34.087Z,2056
2017-08-04T07:32:36.247Z,2148
2017-08-04T07:33:38.250Z,2276
2017-08-04T07:34:40.193Z,2328
2017-08-04T07:35:42.006Z,2324
2017-08-04T07:36:43.891Z,2300
2017-08-04T07:37:45.728Z,2312
2017-08-04T07:38:47.611Z,2280
2017-08-04T07:39:49.410Z,2520
2017-08-04T07:40:52.244Z,2368
2017-08-04T07:41:54.073Z,2228
2017-08-04T07:42:55.849Z,2752
2017-08-04T07:43:57.717Z,2876
2017-08-04T07:44:59.430Z,2620
2017-08-04T07:46:02.339Z,2552
2017-08-04T07:47:04.078Z,2628
2017-08-04T07:48:05.984Z,2592
2017-08-04T07:49:07.658Z,2724
2017-08-04T07:50:09.333Z,2848
2017-08-04T07:51:11.268Z,2852
2017-08-04T07:52:12.961Z,2888
2017-08-04T07:53:14.621Z,2756
2017-08-04T07:54:17.546Z,2544
2017-08-04T07:55:19.233Z,2564
2017-08-04T07:56:20.918Z,3052
2017-08-04T07:57:23.693Z,2896
2017-08-04T07:58:25.366Z,2968
2017-08-04T07:59:29.198Z,3084
2017-08-04T08:00:30.913Z,3040
2017-08-04T08:01:32.877Z,2928
2017-08-04T08:02:35.154Z,2968
2017-08-04T08:03:38.977Z,2964
2017-08-04T08:04:40.698Z,2788
2017-08-04T08:05:42.480Z,2740
2017-08-04T08:06:44.154Z,2860
2017-08-04T08:07:45.872Z,2980
2017-08-04T08:08:47.612Z,2972
2017-08-04T08:09:49.386Z,2932
2017-08-04T08:10:51.224Z,2784
2017-08-04T08:11:58.113Z,2748
2017-08-04T08:12:59.919Z,2676
2017-08-04T08:14:03.850Z,2628
2017-08-04T08:15:05.769Z,2332
2017-08-04T08:16:07.837Z,2080
2017-08-04T08:17:09.810Z,2024
2017-08-04T08:18:11.849Z,1552
2017-08-04T08:19:14.152Z,1652
2017-08-04T08:20:16.153Z,1348
2017-08-04T08:21:18.241Z,1764
2017-08-04T08:22:20.264Z,1928
2017-08-04T08:23:22.016Z,1832
2017-08-04T08:24:24.856Z,1748
2017-08-04T08:25:26.794Z,2268
2017-08-04T08:26:28.621Z,2220
2017-08-04T08:27:30.377Z,2868
2017-08-04T08:28:33.276Z,3140
2017-08-04T08:29:35.105Z,3016
2017-08-04T08:30:36.914Z,2748
2017-08-04T08:31:38.649Z,2968
2017-08-04T08:32:40.496Z,3332
2017-08-04T08:33:42.208Z,3204
2017-08-04T08:34:44.066Z,3208
2017-08-04T08:35:45.743Z,3068
2017-08-04T08:36:47.593Z,3052
2017-08-04T08:37:49.374Z,3136
2017-08-04T08:38:51.292Z,3260
2017-08-04T08:39:52.971Z,3008
2017-08-04T08:40:54.642Z,3064
2017-08-04T08:41:56.485Z,2892
2017-08-04T08:42:58.163Z,2536
2017-08-04T08:43:59.982Z,2576
2017-08-04T08:45:01.672Z,2960
2017-08-04T08:46:03.327Z,2764
2017-08-04T08:47:05.006Z,2464
2017-08-04T08:48:06.717Z,2244
2017-08-04T08:49:08.410Z,3052
2017-08-04T08:50:10.129Z,2684
2017-08-04T08:51:12.030Z,2864
2017-08-04T08:52:13.778Z,2896
2017-08-04T08:53:15.482Z,2752
2017-08-04T08:54:17.417Z,2412
2017-08-04T08:55:19.152Z,2360
2017-08-04T08:56:20.869Z,2328
2017-08-04T08:57:22.601Z,2972
2017-08-04T08:58:24.551Z,2628
2017-08-04T08:59:26.273Z,2584
2017-08-04T09:00:28.009Z,2184
2017-08-04T09:01:29.708Z,2112
2017-08-04T09:02:31.675Z,2504
2017-08-04T09:03:33.470Z,2940
2017-08-04T09:04:36.383Z,3104
2017-08-04T09:05:38.108Z,3248
2017-08-04T09:06:39.865Z,2740
2017-08-04T09:07:41.593Z,2476
2017-08-04T09:08:43.463Z,2416
2017-08-04T09:09:45.158Z,2524
2017-08-04T09:10:47.944Z,2876
2017-08-04T09:11:49.610Z,2580
2017-08-04T09:12:52.230Z,2772
2017-08-04T09:13:53.485Z,2932
2017-08-04T09:14:55.193Z,2720
2017-08-04T09:15:56.908Z,3160
2017-08-04T09:16:58.616Z,3524
2017-08-04T09:18:00.329Z,3320
2017-08-04T09:19:02.080Z,3228
2017-08-04T09:20:04.033Z,3116
2017-08-04T09:21:05.778Z,2712
2017-08-04T09:22:07.459Z,2152
2017-08-04T09:23:09.257Z,2568
2017-08-04T09:24:10.928Z,2988
2017-08-04T09:25:12.934Z,2092
2017-08-04T09:26:14.686Z,1840
2017-08-04T09:27:16.539Z,1600
2017-08-04T09:28:18.201Z,1724
2017-08-04T09:29:19.975Z,1584
2017-08-04T09:30:21.640Z,2020
2017-08-04T09:31:23.455Z,2344
2017-08-04T09:32:25.168Z,2308
2017-08-04T09:33:26.894Z,2800
2017-08-04T09:34:28.700Z,3068
2017-08-04T09:35:30.465Z,3196
2017-08-04T09:36:32.410Z,3016
2017-08-04T09:37:34.211Z,2540
2017-08-04T09:38:36.117Z,2712
2017-08-04T09:39:37.981Z,2772
2017-08-04T09:40:40.013Z,3176
2017-08-04T09:41:41.922Z,3420
2017-08-04T09:42:43.773Z,3480
2017-08-04T09:43:45.504Z,3472
2017-08-04T09:44:47.371Z,3588
2017-08-04T09:45:49.115Z,3512
2017-08-04T09:46:50.968Z,3400
2017-08-04T09:47:53.173Z,3148
2017-08-04T09:48:55.186Z,3196
2017-08-04T09:49:57.074Z,3372
2017-08-04T09:50:58.837Z,3324
2017-08-04T09:52:00.602Z,3268
2017-08-04T09:53:02.463Z,3192
2017-08-04T09:54:04.159Z,3024
2017-08-04T09:55:05.894Z,2304
2017-08-04T09:56:07.638Z,2544
2017-08-04T09:57:10.449Z,3088
2017-08-04T09:58:12.683Z,3204
2017-08-04T09:59:14.345Z,2568
2017-08-04T10:00:16.093Z,2636
2017-08-04T10:01:17.758Z,2732
2017-08-04T10:02:19.704Z,1612
2017-08-04T10:03:21.423Z,1388
2017-08-04T10:04:23.172Z,1796
2017-08-04T10:05:25.136Z,1516
2017-08-04T10:06:27.020Z,1444
2017-08-04T10:07:28.832Z,1492
2017-08-04T10:08:30.601Z,1312
2017-08-04T10:09:32.291Z,1188
2017-08-04T10:10:34.041Z,1284
2017-08-04T10:11:35.786Z,1104
2017-08-04T10:12:37.602Z,824
2017-08-04T10:13:39.450Z,700
2017-08-04T10:14:41.441Z,1180
2017-08-04T18:31:30.580Z,284
2017-08-04T18:32:33.573Z,280
2017-08-04T18:33:35.234Z,272
2017-08-04T18:34:37.227Z,264
2017-08-04T18:35:38.960Z,256
2017-08-04T18:36:42.969Z,248
2017-08-04T18:37:44.539Z,240
2017-08-04T18:38:46.301Z,236
2017-08-04T18:39:48.004Z,232
2017-08-04T18:40:49.670Z,224
2017-08-04T18:50:08.328Z,172
2017-08-04T18:51:10.024Z,168
2017-08-04T18:52:11.783Z,160
2017-08-04T18:53:13.448Z,152
2017-08-04T18:54:15.206Z,148
2017-08-04T18:55:16.905Z,140
2017-08-04T18:56:18.803Z,132
2017-08-04T18:57:21.044Z,124
2017-08-04T18:58:23.375Z,116
2017-08-04T18:59:25.081Z,112
2017-08-04T19:00:26.767Z,108
2017-08-04T19:01:29.522Z,104
2017-08-04T19:02:31.255Z,96
2017-08-04T19:03:32.916Z,92
2017-08-04T19:04:34.624Z,88
2017-08-04T19:05:36.286Z,80
2017-08-04T19:06:38.055Z,72
2017-08-04T19:07:39.781Z,68
2017-08-04T19:08:41.528Z,64
2017-08-04T19:09:43.175Z,60
2017-08-04T19:10:46.141Z,56
2017-08-04T19:11:47.802Z,52
2017-08-04T19:12:49.462Z,44
2017-08-04T19:13:51.119Z,44
2017-08-04T19:14:52.815Z,40
2017-08-04T19:15:54.482Z,40
2017-08-04T19:16:57.268Z,32
2017-08-04T19:17:58.899Z,28
2017-08-04T19:19:00.555Z,24
2017-08-04T19:20:02.292Z,24
2017-08-04T19:21:03.939Z,20
2017-08-04T19:22:05.666Z,20
2017-08-04T19:23:07.476Z,16
2017-08-04T19:24:09.135Z,16
2017-08-04T19:25:10.790Z,16
2017-08-04T19:26:12.608Z,12
2017-08-04T19:27:14.253Z,12
2017-08-04T19:28:16.269Z,12
2017-08-04T19:29:18.627Z,12
2017-08-04T19:30:20.564Z,8
2017-08-04T19:31:22.253Z,8
2017-08-04T19:32:25.498Z,4
2017-08-04T19:33:27.195Z,4
2017-08-04T19:34:29.583Z,4
2017-08-04T19:35:31.371Z,4
2017-08-04T19:36:34.007Z,0
2017-08-04T19:37:36.438Z,4
2017-08-04T19:38:38.464Z,4
2017-08-04T19:39:40.709Z,4
2017-08-04T19:40:42.430Z,4
2017-08-04T19:41:44.182Z,0
2017-08-04T19:42:45.929Z,0
2017-08-04T19:43:47.625Z,0
2017-08-04T19:44:49.896Z,0
2017-08-04T19:45:51.720Z,0
2017-08-04T19:46:54.812Z,0
2017-08-04T19:47:56.616Z,0
2017-08-04T19:48:58.693Z,0
2017-08-04T19:50:00.536Z,0
2017-08-04T19:51:02.581Z,0
2017-08-04T19:52:05.123Z,0
2017-08-04T19:53:07.819Z,0
2017-08-04T19:54:09.671Z,0
2017-08-04T19:55:12.082Z,0
2017-08-04T19:56:13.877Z,0
2017-08-04T19:57:15.673Z,0
2017-08-04T19:58:17.488Z,0
2017-08-04T19:59:19.467Z,0
2017-08-04T20:00:21.273Z,0
2017-08-04T20:01:25.237Z,0
2017-08-04T20:02:26.965Z,0
2017-08-04T20:03:28.821Z,0
2017-08-04T20:04:30.563Z,0
2017-08-04T20:05:33.029Z,0
2017-08-04T20:06:34.850Z,0
2017-08-04T20:07:36.612Z,0
2017-08-04T20:08:38.359Z,0
2017-08-04T20:09:40.172Z,0
2017-08-04T20:10:41.972Z,0
2017-08-04T20:11:43.761Z,0
2017-08-04T20:12:45.710Z,0
2017-08-04T20:13:47.507Z,0
2017-08-04T20:14:49.345Z,0
2017-08-04T20:15:51.117Z,0
2017-08-04T20:16:52.906Z,0
2017-08-04T20:17:54.741Z,0
2017-08-04T20:18:56.531Z,0
2017-08-04T20:19:58.462Z,0
2017-08-04T20:21:00.257Z,0
2017-08-04T20:22:02.020Z,0
2017-08-04T20:23:03.820Z,0
2017-08-04T20:24:08.058Z,0
2017-08-04T20:25:10.003Z,0
2017-08-04T20:26:11.759Z,0
2017-08-04T20:27:13.674Z,0
2017-08-04T20:28:15.399Z,0
2017-08-04T20:29:17.382Z,0
2017-08-04T20:30:19.133Z,0
2017-08-04T20:31:21.048Z,0
2017-08-04T20:32:22.835Z,0
2017-08-04T20:33:24.630Z,0
2017-08-04T20:34:26.301Z,0
2017-08-04T20:35:28.103Z,0
2017-08-04T20:36:29.789Z,0
2017-08-04T20:37:31.593Z,0
2017-08-04T20:38:33.392Z,0
2017-08-04T20:39:35.266Z,0
2017-08-04T20:40:36.948Z,0
2017-08-04T20:41:38.614Z,0
2017-08-04T20:42:40.421Z,0
2017-08-04T20:43:42.896Z,0
2017-08-04T20:44:44.660Z,0
2017-08-04T20:45:46.323Z,0
2017-08-04T20:46:48.124Z,0
2017-08-04T20:47:49.888Z,0
2017-08-04T20:48:51.750Z,0
2017-08-04T20:49:54.072Z,0
2017-08-04T20:50:55.883Z,0
2017-08-04T20:51:57.571Z,0
2017-08-04T20:52:59.323Z,0
2017-08-04T20:54:01.047Z,0
2017-08-04T20:55:02.696Z,0
2017-08-04T20:56:04.395Z,0
2017-08-04T20:57:06.249Z,0
2017-08-04T20:58:07.940Z,0
2017-08-04T20:59:09.703Z,0
2017-08-04T21:00:11.355Z,0
2017-08-04T21:01:13.096Z,0
2017-08-04T21:02:14.744Z,0
2017-08-04T21:03:16.502Z,0
2017-08-04T21:04:18.337Z,0
2017-08-04T21:05:20.036Z,0
2017-08-04T21:06:21.771Z,0
2017-08-04T21:07:23.440Z,0
2017-08-04T21:08:25.086Z,0
2017-08-04T21:09:26.920Z,0
2017-08-04T21:10:28.560Z,0
2017-08-04T21:11:30.320Z,0
2017-08-04T21:12:31.979Z,0
2017-08-04T21:13:33.719Z,0
2017-08-04T21:14:35.447Z,0
2017-08-04T21:15:37.223Z,0
2017-08-04T21:16:38.886Z,0
2017-08-04T21:17:40.600Z,0
2017-08-04T21:18:42.398Z,0
2017-08-04T21:19:44.155Z,0
2017-08-04T21:20:47.579Z,0
2017-08-04T22:11:01.289Z,0
2017-08-04T22:12:03.048Z,0
2017-08-04T22:13:04.806Z,0
2017-08-04T22:14:06.456Z,0
2017-08-04T22:15:08.180Z,0
2017-08-04T22:16:09.882Z,0
2017-08-04T22:17:11.660Z,0
2017-08-04T22:18:13.430Z,0
2017-08-04T22:19:15.161Z,0
2017-08-04T22:20:16.892Z,0
2017-08-04T22:21:18.545Z,0
2017-08-04T22:22:20.331Z,0
2017-08-04T22:23:22.121Z,0
2017-08-04T22:24:23.921Z,0
2017-08-04T22:25:25.661Z,0
2017-08-04T22:26:27.364Z,0
2017-08-04T22:27:29.079Z,0
2017-08-04T22:28:30.936Z,0
2017-08-04T22:29:32.771Z,0
2017-08-04T22:30:34.604Z,0
2017-08-04T22:31:36.338Z,0
2017-08-04T22:32:38.132Z,0
2017-08-04T22:33:39.850Z,0
2017-08-04T22:34:41.530Z,0
2017-08-04T22:35:43.234Z,0
2017-08-04T22:36:44.935Z,0
2017-08-04T22:37:46.683Z,0
2017-08-04T22:38:48.521Z,0
2017-08-04T22:39:50.301Z,0
2017-08-04T22:40:52.095Z,0
2017-08-04T22:41:53.814Z,0
2017-08-04T22:42:55.573Z,0
2017-08-04T22:43:57.294Z,0
2017-08-04T22:44:58.997Z,0
2017-08-04T22:46:00.723Z,0
2017-08-04T22:47:02.605Z,0
2017-08-04T22:48:04.313Z,0
2017-08-04T22:49:06.137Z,0
2017-08-04T22:50:07.805Z,0
2017-08-04T22:51:09.592Z,0
2017-08-04T22:52:11.275Z,0
2017-08-04T22:53:12.975Z,0
2017-08-04T22:54:14.638Z,0
2017-08-04T22:55:16.420Z,0
2017-08-04T22:56:18.106Z,0
2017-08-04T22:57:19.911Z,0
2017-08-04T22:58:21.639Z,0
2017-08-04T22:59:23.480Z,0
2017-08-04T23:00:25.200Z,0
2017-08-04T23:01:27.045Z,0
2017-08-04T23:02:28.680Z,0
2017-08-04T23:03:30.559Z,0
2017-08-04T23:04:32.287Z,0
2017-08-04T23:05:34.037Z,0
2017-08-04T23:06:35.782Z,0
2017-08-04T23:07:37.625Z,0
2017-08-04T23:08:39.354Z,0
2017-08-04T23:09:41.135Z,0
2017-08-04T23:10:42.816Z,0
2017-08-04T23:11:44.623Z,0
2017-08-04T23:12:46.365Z,0
2017-08-04T23:13:48.218Z,0
2017-08-04T23:14:49.934Z,0
2017-08-04T23:15:51.618Z,0
2017-08-04T23:16:53.359Z,0
2017-08-04T23:17:55.185Z,0
2017-08-04T23:18:56.918Z,0
2017-08-04T23:19:58.673Z,0
2017-08-04T23:21:00.324Z,0
2017-08-04T23:22:02.090Z,0
2017-08-04T23:23:03.759Z,0
2017-08-04T23:24:05.574Z,0
2017-08-04T23:25:07.298Z,0
2017-08-04T23:26:10.024Z,0
2017-08-04T23:27:11.773Z,0
2017-08-04T23:28:13.576Z,0
2017-08-04T23:29:15.310Z,0
2017-08-04T23:30:17.084Z,0
2017-08-04T23:31:18.806Z,0
2017-08-04T23:32:20.884Z,0
2017-08-04T23:33:22.602Z,0
2017-08-04T23:34:24.354Z,0
2017-08-04T23:35:26.064Z,0
2017-08-04T23:36:27.871Z,0
2017-08-04T23:37:29.602Z,0
2017-08-04T23:38:31.359Z,0
2017-08-04T23:39:33.087Z,0
2017-08-04T23:40:34.884Z,0
2017-08-04T23:41:36.630Z,0
2017-08-04T23:42:38.456Z,0
2017-08-04T23:43:40.177Z,0
2017-08-04T23:44:41.884Z,0
2017-08-04T23:45:43.594Z,0
2017-08-04T23:46:45.304Z,0
2017-08-04T23:47:47.039Z,0
2017-08-04T23:48:48.869Z,0
2017-08-04T23:49:50.660Z,0
2017-08-04T23:50:52.456Z,0
2017-08-04T23:51:54.211Z,0